Time;durP1;ratioP1;P1;durP2;ratioP2;P2;SDS_P1;SDS_P2;PMS_P1;PMS_P2;Temp;Humidity;BMP_temperature;BMP_pressure;BME280_temperature;BME280_humidity;BME280_pressure;Samples;Min_cycle;Max_cycle;Signal;HPM_P1;HPM_P2
2022/07/29 00:01:32;;;;;;;4.40;3.33;;;24.70;74.00;;;24.97;50.16;98456.88;5035970;27;114057;-71
2022/07/29 00:03:59;;;;;;;4.10;3.70;;;24.60;74.20;;;24.94;50.06;98446.41;5035394;27;114356;-71
2022/07/29 00:06:25;;;;;;;4.13;3.73;;;24.60;74.50;;;24.92;50.54;98448.84;5045902;27;124200;-71
2022/07/29 00:08:52;;;;;;;3.27;2.97;;;24.50;74.70;;;24.90;50.78;98439.97;5045555;27;124284;-71
2022/07/29 00:11:18;;;;;;;3.63;3.23;;;24.50;75.00;;;24.89;50.86;98444.03;5043572;27;114473;-71
2022/07/29 00:13:45;;;;;;;4.33;3.50;;;24.50;75.30;;;24.91;50.64;98445.22;5030948;27;114088;-71
2022/07/29 00:16:11;;;;;;;5.40;4.00;;;24.50;75.50;;;24.92;50.77;98437.53;5041390;27;124365;-71
2022/07/29 00:18:39;;;;;;;4.13;3.40;;;24.50;75.70;;;24.88;50.87;98434.75;5045558;27;123571;-71
2022/07/29 00:21:05;;;;;;;6.27;3.50;;;24.50;75.90;;;24.84;51.14;98430.34;5037700;27;115419;-71
2022/07/29 00:23:32;;;;;;;3.53;3.23;;;24.50;76.00;;;24.81;51.30;98429.16;5040086;27;114791;-70
2022/07/29 00:25:58;;;;;;;4.83;3.67;;;24.50;76.40;;;24.78;51.19;98432.84;5039504;27;123776;-70
2022/07/29 00:28:25;;;;;;;5.80;3.90;;;24.40;76.50;;;24.76;51.30;98426.78;5042256;27;123914;-70
2022/07/29 00:30:51;;;;;;;4.03;3.53;;;24.40;76.90;;;24.76;51.53;98428.81;5034866;27;114355;-70
2022/07/29 00:33:18;;;;;;;3.87;3.47;;;24.40;77.20;;;24.75;51.63;98438.53;5045563;27;113870;-70
2022/07/29 00:35:44;;;;;;;4.00;3.43;;;24.40;77.50;;;24.73;51.77;98432.47;5042258;27;124785;-70
2022/07/29 00:38:16;;;;;;;4.50;3.20;;;24.30;77.70;;;24.72;51.71;98434.50;5042302;27;123991;-70
2022/07/29 00:40:44;;;;;;;3.70;3.37;;;24.30;78.00;;;24.73;51.74;98424.00;5039039;27;114496;-70
2022/07/29 00:43:13;;;;;;;4.40;3.43;;;24.30;78.20;;;24.72;51.73;98433.69;5040425;27;114116;-71
2022/07/29 00:45:43;;;;;;;3.50;3.20;;;24.30;78.50;;;24.71;52.21;98420.78;5048663;27;122888;-70
2022/07/29 00:48:10;;;;;;;4.80;3.40;;;24.30;78.80;;;24.68;52.22;98423.22;5046712;27;124242;-70
2022/07/29 00:50:38;;;;;;;4.70;3.53;;;24.20;79.00;;;24.68;52.37;98422.41;5038663;27;114160;-70
2022/07/29 00:53:07;;;;;;;4.30;3.30;;;24.20;79.30;;;24.68;52.67;98422.41;5026174;27;112528;-70
2022/07/29 00:55:34;;;;;;;3.80;2.87;;;24.20;79.60;;;24.67;52.37;98420.81;5045458;27;124191;-70
2022/07/29 00:58:00;;;;;;;4.83;3.20;;;24.20;79.70;;;24.63;52.37;98418.00;5036349;27;123133;-70
2022/07/29 01:00:29;;;;;;;3.80;3.40;;;24.20;79.80;;;24.58;52.68;98426.13;5033167;27;113260;-70
2022/07/29 01:02:55;;;;;;;4.10;3.70;;;24.20;80.20;;;24.51;52.96;98415.72;5040095;27;114469;-70
2022/07/29 01:05:25;;;;;;;5.33;3.73;;;24.10;80.30;;;24.45;52.86;98417.38;5048961;27;124613;-70
2022/07/29 01:07:54;;;;;;;3.50;3.20;;;24.10;80.70;;;24.44;52.99;98410.09;5048850;27;124010;-70
2022/07/29 01:10:21;;;;;;;5.87;3.73;;;24.10;80.90;;;24.42;53.10;98398.38;5042246;27;115231;-71
2022/07/29 01:12:50;;;;;;;4.00;3.37;;;24.00;81.10;;;24.39;53.11;98397.19;5033590;27;113978;-71
2022/07/29 01:15:17;;;;;;;3.57;2.90;;;24.00;81.40;;;24.37;53.08;98404.50;5046369;27;124812;-71
2022/07/29 01:17:54;;;;;;;6.20;4.00;;;24.00;81.50;;;24.34;53.33;98402.47;5048734;27;123947;-71
2022/07/29 01:20:47;;;;;;;5.80;3.70;;;23.90;81.80;;;24.31;53.22;98415.41;5030129;27;113259;-70
2022/07/29 01:23:44;;;;;;;4.17;3.77;;;23.90;82.10;;;24.22;53.20;98398.94;5045260;27;113818;-71
2022/07/29 01:26:46;;;;;;;4.43;3.27;;;23.90;82.20;;;24.17;53.29;98399.38;5042371;27;123994;-71
2022/07/29 01:29:25;;;;;;;3.53;3.23;;;23.80;82.40;;;24.21;53.45;98399.38;5030623;27;123895;-71
2022/07/29 01:31:59;;;;;;;4.87;3.00;;;23.70;82.40;;;24.19;53.41;98399.78;5042411;27;114413;-71
2022/07/29 01:34:36;;;;;;;3.57;3.27;;;23.70;82.50;;;24.16;53.23;98400.59;5033216;27;113956;-71
2022/07/29 01:37:43;;;;;;;3.17;2.87;;;23.70;82.60;;;24.10;53.33;98398.63;5034399;27;124318;-71
2022/07/29 01:40:49;;;;;;;3.23;2.93;;;23.70;82.70;;;24.08;53.58;98413.16;5038520;27;122896;-71
2022/07/29 01:43:32;;;;;;;5.20;2.93;;;23.70;82.90;;;24.01;53.63;98402.69;5030656;27;114343;-70
2022/07/29 01:46:14;;;;;;;3.97;3.50;;;23.60;83.00;;;23.97;53.43;98401.13;5039880;27;113181;-71
2022/07/29 01:48:58;;;;;;;3.80;3.30;;;23.60;83.30;;;23.94;53.86;98399.94;5039962;27;124182;-71
2022/07/29 01:51:55;;;;;;;4.90;3.37;;;23.50;83.30;;;23.94;53.83;98396.31;5034785;27;123971;-71
2022/07/29 01:54:35;;;;;;;6.83;3.40;;;23.50;83.60;;;23.91;53.83;98408.41;5046377;27;114826;-71
2022/07/29 01:57:04;;;;;;;3.63;3.27;;;23.50;83.70;;;23.89;53.79;98400.38;5035665;27;115984;-71
2022/07/29 01:59:33;;;;;;;3.23;2.93;;;23.50;83.90;;;23.89;53.93;98400.38;5048277;27;124405;-71
2022/07/29 02:02:02;;;;;;;4.07;3.10;;;23.50;84.00;;;23.91;53.73;98399.94;5033137;27;123294;-71
2022/07/29 02:04:31;;;;;;;3.63;3.20;;;23.40;84.10;;;23.92;53.83;98404.38;5041329;27;115251;-70
2022/07/29 02:07:07;;;;;;;4.47;2.83;;;23.50;84.20;;;23.92;53.96;98381.81;5044230;27;114873;-71
2022/07/29 02:09:36;;;;;;;3.23;2.93;;;23.50;84.40;;;23.91;53.83;98385.84;5031223;27;123028;-71
2022/07/29 02:12:06;;;;;;;3.30;2.90;;;23.40;84.50;;;23.89;53.92;98389.09;5050390;27;124413;-70
2022/07/29 02:14:37;;;;;;;2.93;2.73;;;23.40;84.60;;;23.91;53.78;98383.00;5030953;27;114347;-71
2022/07/29 02:17:04;;;;;;;5.07;3.20;;;23.40;84.60;;;23.88;53.85;98384.63;5045392;27;113145;-71
2022/07/29 02:19:32;;;;;;;3.70;3.40;;;23.40;84.80;;;23.87;53.93;98385.06;5048193;27;124018;-70
2022/07/29 02:22:01;;;;;;;3.37;2.90;;;23.40;84.80;;;23.88;53.84;98381.03;5031923;27;124413;-70
2022/07/29 02:24:29;;;;;;;2.67;2.17;;;23.40;84.70;;;23.87;53.80;98373.78;5035119;27;114635;-71
2022/07/29 02:26:57;;;;;;;4.20;2.90;;;23.40;84.80;;;23.84;54.09;98372.59;5047291;27;114497;-71
2022/07/29 02:29:27;;;;;;;5.57;3.37;;;23.40;85.00;;;23.84;53.77;98374.59;5040030;27;124291;-71
2022/07/29 02:31:57;;;;;;;3.10;2.70;;;23.40;85.00;;;23.83;53.91;98373.81;5044200;27;124148;-71
2022/07/29 02:34:25;;;;;;;2.97;2.67;;;23.40;85.00;;;23.84;54.03;98377.44;5049247;27;114106;-71
2022/07/29 02:36:54;;;;;;;3.60;2.60;;;23.40;85.10;;;23.82;53.90;98380.66;5035014;27;113132;-71
2022/07/29 02:39:23;;;;;;;4.20;2.47;;;23.40;85.30;;;23.81;53.80;98374.22;5039361;27;124052;-71
2022/07/29 02:41:59;;;;;;;4.20;3.27;;;23.40;85.30;;;23.80;53.96;98375.44;5043842;27;123704;-71
2022/07/29 02:44:26;;;;;;;2.93;2.63;;;23.40;85.30;;;23.81;53.85;98377.03;5044422;27;114207;-71
2022/07/29 02:47:20;;;;;;;3.10;2.80;;;23.30;85.30;;;23.79;53.85;98373.81;5047222;27;114011;-71
2022/07/29 02:50:27;;;;;;;5.63;3.00;;;23.40;85.30;;;23.75;53.70;98369.41;5039621;27;124018;-71
2022/07/29 02:53:21;;;;;;;3.97;3.17;;;23.30;85.20;;;23.73;53.81;98375.47;5033697;27;124147;-71
2022/07/29 02:56:02;;;;;;;3.70;2.87;;;23.30;85.20;;;23.73;53.87;98378.28;5023525;27;115220;-71
2022/07/29 02:58:38;;;;;;;2.77;2.57;;;23.30;85.30;;;23.72;53.92;98373.03;5036184;27;115435;-70
2022/07/29 03:01:13;;;;;;;2.73;2.50;;;23.20;85.20;;;23.68;53.59;98378.69;5045695;27;123990;-71
2022/07/29 03:03:44;;;;;;;2.97;2.77;;;23.20;85.30;;;23.66;53.95;98386.75;5044537;27;125059;-71
2022/07/29 03:06:14;;;;;;;4.20;3.23;;;23.20;85.50;;;23.66;53.92;98380.31;5040202;27;114398;-71
2022/07/29 03:08:42;;;;;;;3.70;2.80;;;23.20;85.60;;;23.65;53.83;98393.63;5045282;27;114032;-71
2022/07/29 03:11:09;;;;;;;2.70;2.50;;;23.20;85.60;;;23.64;53.86;98389.16;5047428;27;124671;-71
2022/07/29 03:13:37;;;;;;;3.80;2.80;;;23.10;85.50;;;23.64;53.72;98394.81;5045651;27;123692;-71
2022/07/29 03:16:05;;;;;;;3.40;2.80;;;23.10;85.50;;;23.63;53.94;98398.84;5046123;27;113446;-71
2022/07/29 03:18:32;;;;;;;2.80;2.37;;;23.20;85.60;;;23.61;53.94;98401.28;5045267;27;114092;-71
2022/07/29 03:20:59;;;;;;;3.70;3.00;;;23.10;85.50;;;23.62;54.13;98396.47;5038463;27;124045;-71
2022/07/29 03:23:27;;;;;;;4.07;3.40;;;23.10;85.70;;;23.58;54.16;98391.63;5027914;27;123709;-71
2022/07/29 03:25:54;;;;;;;3.10;2.80;;;23.10;85.80;;;23.54;53.95;98395.69;5038310;27;114291;-71
2022/07/29 03:28:22;;;;;;;2.70;2.47;;;23.10;85.80;;;23.51;54.09;98393.69;5025821;28;113731;-71
2022/07/29 03:30:50;;;;;;;2.80;2.50;;;23.10;85.90;;;23.50;54.05;98389.25;5043259;27;123112;-71
2022/07/29 03:33:16;;;;;;;4.97;3.10;;;23.10;85.90;;;23.50;54.23;98389.25;5042700;27;124378;-71
2022/07/29 03:35:43;;;;;;;2.90;2.50;;;23.10;86.00;;;23.51;54.14;98396.50;5043377;27;114696;-71
2022/07/29 03:38:09;;;;;;;2.67;2.40;;;23.10;86.20;;;23.50;54.12;98394.88;5045807;27;113641;-70
2022/07/29 03:41:06;;;;;;;4.03;2.97;;;23.10;86.30;;;23.46;54.20;98396.94;5041554;27;124305;-71
2022/07/29 03:43:37;;;;;;;3.53;2.90;;;23.00;86.20;;;23.46;54.42;98397.72;5038389;27;124357;-71
2022/07/29 03:46:08;;;;;;;3.70;2.53;;;23.00;86.50;;;23.47;54.33;98395.72;5025165;27;114367;-71
2022/07/29 03:48:39;;;;;;;3.47;3.17;;;23.00;86.60;;;23.46;54.41;98394.91;5041932;27;114823;-71
2022/07/29 03:51:06;;;;;;;4.23;2.63;;;23.00;86.60;;;23.47;54.17;98396.50;5044258;27;124268;-70
2022/07/29 03:53:35;;;;;;;4.70;2.80;;;23.00;86.70;;;23.47;54.47;98402.16;5038077;27;122680;-71
2022/07/29 03:56:03;;;;;;;3.13;2.70;;;23.00;86.70;;;23.48;54.36;98394.47;5044633;27;114259;-71
2022/07/29 03:58:34;;;;;;;2.83;2.53;;;23.00;86.80;;;23.48;54.48;98402.94;5045450;27;113803;-71
2022/07/29 04:01:00;;;;;;;3.33;2.87;;;23.00;86.80;;;23.49;54.28;98405.38;5042549;27;124421;-71
2022/07/29 04:03:27;;;;;;;4.63;3.20;;;23.00;86.80;;;23.50;54.43;98414.63;5031086;27;123090;-71
2022/07/29 04:06:06;;;;;;;4.40;2.87;;;23.00;87.40;;;23.49;54.23;98405.38;5041069;27;113616;-71
2022/07/29 04:08:34;;;;;;;3.30;2.63;;;23.00;86.90;;;23.49;54.35;98402.53;5042280;27;113519;-70
2022/07/29 04:11:02;;;;;;;2.70;2.50;;;23.00;86.90;;;23.48;54.53;98406.59;5034380;27;124007;-70
2022/07/29 04:13:29;;;;;;;3.43;2.97;;;23.00;86.90;;;23.48;54.31;98405.75;5049578;27;123211;-71
2022/07/29 04:15:56;;;;;;;2.70;2.50;;;23.00;87.00;;;23.47;54.33;98409.81;5030177;27;114090;-71
2022/07/29 04:18:23;;;;;;;3.67;3.27;;;23.00;87.10;;;23.44;54.43;98402.16;5041165;27;113134;-71
2022/07/29 04:20:49;;;;;;;3.00;2.70;;;23.00;87.00;;;23.43;54.39;98401.38;5048409;27;124211;-71
2022/07/29 04:23:16;;;;;;;3.13;2.63;;;23.00;87.00;;;23.42;54.50;98411.03;5039391;27;122734;-71
2022/07/29 04:25:43;;;;;;;4.97;2.93;;;23.00;86.90;;;23.37;54.66;98406.63;5040891;27;114411;-70
2022/07/29 04:28:10;;;;;;;3.10;2.80;;;23.00;87.10;;;23.37;54.43;98408.63;5049041;27;113717;-71
2022/07/29 04:30:37;;;;;;;4.00;2.90;;;22.90;87.20;;;23.38;54.55;98405.41;5040633;27;123705;-71
2022/07/29 04:33:06;;;;;;;2.60;2.40;;;22.90;87.30;;;23.43;54.41;98406.19;5045989;27;123491;-71
2022/07/29 04:35:37;;;;;;;3.03;2.73;;;22.90;87.40;;;23.41;54.48;98414.25;5045726;27;114465;-72
2022/07/29 04:38:06;;;;;;;3.50;3.20;;;22.90;87.50;;;23.38;54.70;98405.41;5042844;27;114051;-71
2022/07/29 04:40:33;;;;;;;2.90;2.60;;;22.90;87.50;;;23.40;54.57;98413.47;5050998;27;124265;-71
2022/07/29 04:43:20;;;;;;;3.70;3.20;;;22.90;87.50;;;23.43;54.52;98407.00;5021675;28;124237;-71
2022/07/29 04:46:08;;;;;;;3.23;2.80;;;22.90;87.50;;;23.45;54.25;98413.03;5041111;27;114219;-72
2022/07/29 04:48:38;;;;;;;3.23;2.70;;;23.00;87.50;;;23.44;54.23;98402.97;5048752;27;114784;-71
2022/07/29 04:51:10;;;;;;;5.83;3.03;;;23.00;87.20;;;23.44;54.19;98417.06;5050356;27;124178;-71
2022/07/29 04:53:51;;;;;;;3.13;2.40;;;23.00;87.40;;;23.46;54.15;98411.03;5046891;27;123634;-72
2022/07/29 04:56:18;;;;;;;3.00;2.67;;;23.00;87.30;;;23.41;53.93;98409.44;5050832;27;114327;-72
2022/07/29 04:58:59;;;;;;;2.43;2.20;;;22.90;87.10;;;23.37;54.08;98426.38;5049299;27;113969;-71
2022/07/29 05:01:31;;;;;;;2.93;2.30;;;22.90;87.30;;;23.34;53.98;98412.25;5049800;27;123517;-72
2022/07/29 05:04:00;;;;;;;2.80;2.43;;;22.80;87.80;;;23.32;54.03;98418.31;5038680;27;124436;-72
2022/07/29 05:06:26;;;;;;;5.00;2.57;;;22.80;87.20;;;23.31;54.11;98413.88;5044895;27;113449;-71
2022/07/29 05:08:53;;;;;;;4.27;2.80;;;22.80;87.10;;;23.31;53.80;98425.16;5041129;27;114835;-71
2022/07/29 05:11:42;;;;;;;2.80;2.60;;;22.80;87.00;;;23.30;53.85;98415.09;5043292;27;124417;-71
2022/07/29 05:14:17;;;;;;;2.40;2.03;;;22.80;86.90;;;23.33;53.67;98407.84;5043474;27;122798;-71
2022/07/29 05:16:57;;;;;;;;;;;;;;;;;;;;;
2022/07/29 05:19:29;;;;;;;4.07;2.50;;;22.80;86.80;;;23.44;53.67;98419.09;5032680;27;113800;-71
2022/07/29 05:22:02;;;;;;;5.57;2.97;;;22.90;86.90;;;23.50;53.41;98414.63;5034420;27;123749;-71
2022/07/29 05:24:34;;;;;;;6.37;3.10;;;22.90;86.70;;;23.53;53.24;98413.81;5045241;27;123193;-71
2022/07/29 05:27:13;;;;;;;2.53;2.20;;;22.90;86.50;;;23.56;53.11;98419.44;5051879;27;114560;-72
2022/07/29 05:29:48;;;;;;;4.63;2.57;;;23.00;86.60;;;23.60;52.98;98417.41;5049023;27;115497;-72
2022/07/29 05:32:20;;;;;;;2.50;2.30;;;23.00;86.30;;;23.67;52.72;98410.09;5040185;27;124441;-71
2022/07/29 05:34:51;;;;;;;5.37;2.63;;;23.10;86.20;;;23.69;52.98;98418.97;5049409;27;123946;-71
2022/07/29 05:37:22;;;;;;;2.30;2.10;;;23.10;86.10;;;23.72;52.53;98416.19;5029536;27;114062;-71
2022/07/29 05:39:57;;;;;;;2.30;2.10;;;23.20;85.90;;;23.73;52.46;98420.59;5046830;27;113802;-71
2022/07/29 05:42:32;;;;;;;3.60;2.47;;;23.20;85.60;;;23.76;52.33;98418.97;5049935;27;123332;-71
2022/07/29 05:45:12;;;;;;;2.57;2.30;;;23.20;85.60;;;23.81;52.24;98422.16;5038727;27;123676;-71
2022/07/29 05:47:46;;;;;;;3.13;2.30;;;23.20;85.40;;;23.88;51.73;98412.06;5028897;27;114742;-71
2022/07/29 05:50:15;;;;;;;2.77;2.50;;;23.30;85.40;;;23.93;51.92;98422.91;5047184;27;114764;-71
2022/07/29 05:52:54;;;;;;;3.57;2.20;;;23.30;85.10;;;23.92;51.93;98426.97;5046322;27;124221;-71
2022/07/29 05:55:45;;;;;;;6.60;2.13;;;23.30;85.00;;;23.91;52.03;98433.81;5047786;27;123818;-71
2022/07/29 05:58:16;;;;;;;4.17;2.30;;;23.40;85.20;;;23.94;52.06;98418.91;5040096;27;114085;-71
2022/07/29 06:00:52;;;;;;;2.63;2.03;;;23.40;85.20;;;23.99;52.04;98422.09;5046593;27;115506;-71
2022/07/29 06:03:25;;;;;;;2.70;2.30;;;23.40;85.20;;;24.07;51.89;98427.66;5030265;27;123141;-71
2022/07/29 06:05:59;;;;;;;3.07;2.10;;;23.50;85.10;;;24.15;51.66;98434.88;5030903;27;124113;-71
2022/07/29 06:08:34;;;;;;;5.93;2.40;;;23.50;85.00;;;24.22;51.66;98435.63;5032864;27;114820;-71
2022/07/29 06:11:01;;;;;;;2.10;1.87;;;23.60;85.00;;;24.30;51.65;98436.41;5046091;27;113076;-71
2022/07/29 06:13:30;;;;;;;2.30;2.03;;;23.70;84.80;;;24.40;51.22;98435.53;5035274;27;124171;-71
2022/07/29 06:15:57;;;;;;;3.63;2.50;;;23.70;84.70;;;24.49;51.31;98437.09;5032883;27;123971;-72
2022/07/29 06:18:29;;;;;;;3.43;2.30;;;23.80;84.60;;;24.60;51.01;98449.91;5030648;27;115258;-71
2022/07/29 06:21:04;;;;;;;5.97;2.20;;;23.90;84.40;;;24.69;50.94;98447.44;5044843;27;114772;-72
2022/07/29 06:23:34;;;;;;;3.90;2.60;;;24.00;84.30;;;24.80;50.52;98440.91;5041416;27;124144;-71
2022/07/29 06:26:13;;;;;;;2.23;2.03;;;24.10;84.00;;;24.87;50.04;98435.16;5048677;27;122925;-72
2022/07/29 06:28:40;;;;;;;3.70;2.73;;;24.20;83.90;;;24.94;50.41;98440.75;5042154;27;114586;-72
2022/07/29 06:31:15;;;;;;;3.20;2.90;;;24.20;83.70;;;25.01;49.87;98437.88;5042274;27;113730;-72
2022/07/29 06:33:47;;;;;;;3.23;2.40;;;24.30;83.40;;;25.08;50.10;98446.28;5037144;27;125906;-72
2022/07/29 06:36:14;;;;;;;6.57;3.10;;;24.40;83.30;;;25.16;49.51;98441.38;5034794;27;124709;-72
2022/07/29 06:38:43;;;;;;;4.13;2.73;;;24.40;83.10;;;25.24;49.21;98442.91;5042028;27;114204;-72
2022/07/29 06:41:18;;;;;;;4.70;3.13;;;24.50;82.90;;;25.29;49.56;98444.50;5048641;27;113223;-71
2022/07/29 06:44:51;;;;;;;;;;;;;;;;;;;;;
2022/07/29 06:47:18;;;;;;;3.37;2.70;;;24.70;82.50;;;25.44;49.14;98439.47;5032402;27;124310;-71
2022/07/29 06:49:50;;;;;;;2.90;2.60;;;23.90;81.50;;;25.51;48.95;98445.03;5041367;27;114752;-71
2022/07/29 06:52:17;;;;;;;3.03;2.57;;;24.80;82.00;;;25.51;49.17;98445.84;5033521;27;114060;-70
2022/07/29 06:54:49;;;;;;;3.60;2.60;;;24.90;81.70;;;25.54;48.63;98439.34;5036157;27;125269;-71
2022/07/29 06:57:33;;;;;;;4.73;2.87;;;24.90;81.50;;;25.58;48.48;98444.97;5037215;27;124017;-76
2022/07/29 07:00:07;;;;;;;2.70;2.50;;;24.90;81.30;;;25.65;48.53;98449.72;5035282;27;114284;-72
2022/07/29 07:02:41;;;;;;;3.63;2.90;;;25.00;81.40;;;25.77;48.38;98449.19;5037023;27;114853;-73
2022/07/29 07:05:19;;;;;;;3.37;3.07;;;25.10;81.20;;;25.88;48.11;98444.22;5048541;27;124655;-72
2022/07/29 07:08:07;;;;;;;6.30;2.30;;;25.20;81.10;;;25.99;48.23;98447.69;5025677;27;122660;-73
2022/07/29 07:10:43;;;;;;;3.17;2.73;;;25.30;81.00;;;26.10;47.92;98446.75;5023973;27;114219;-73
2022/07/29 07:13:10;;;;;;;5.53;2.93;;;25.40;80.90;;;26.20;48.07;98445.81;5029583;27;115029;-74
2022/07/29 07:15:41;;;;;;;5.93;3.07;;;25.40;80.60;;;26.20;47.60;98449.44;5038648;27;124678;-73
2022/07/29 07:18:10;;;;;;;4.93;3.20;;;25.50;80.50;;;26.27;47.47;98448.50;5027751;27;124325;-72
2022/07/29 07:20:39;;;;;;;7.83;3.13;;;25.50;80.30;;;26.33;47.61;98455.31;5032758;27;114546;-72
2022/07/29 07:23:15;;;;;;;3.57;3.27;;;25.60;80.20;;;26.36;47.37;98454.47;5028103;27;114243;-72
2022/07/29 07:25:41;;;;;;;3.53;2.80;;;25.70;80.10;;;26.40;46.99;98455.19;5040355;27;122761;-74
2022/07/29 07:28:11;;;;;;;4.23;3.03;;;25.70;79.70;;;26.46;47.14;98447.00;5041480;27;123870;-72
2022/07/29 07:30:40;;;;;;;3.57;2.87;;;25.70;79.60;;;26.53;47.33;98454.66;5039838;27;113223;-73
2022/07/29 07:33:09;;;;;;;4.20;3.17;;;25.80;79.40;;;26.58;47.14;98465.50;5039552;27;113900;-74
2022/07/29 07:35:40;;;;;;;4.00;3.30;;;25.90;79.10;;;26.62;47.09;98457.72;5038397;27;124055;-73
2022/07/29 07:38:07;;;;;;;3.00;2.80;;;26.00;79.00;;;26.69;46.08;98460.47;5041136;27;123797;-73
2022/07/29 07:40:33;;;;;;;3.10;2.80;;;26.00;78.70;;;26.78;46.32;98452.19;5046289;27;113848;-73
2022/07/29 07:43:05;;;;;;;3.20;2.90;;;26.10;78.60;;;26.87;46.58;98452.47;5044806;27;114523;-72
2022/07/29 07:45:39;;;;;;;3.57;2.60;;;26.20;78.40;;;26.97;45.94;98458.38;5036987;27;124236;-75
2022/07/29 07:48:14;;;;;;;4.13;3.17;;;26.30;78.30;;;27.07;46.16;98451.72;5042959;27;123806;-72
2022/07/29 07:50:41;;;;;;;3.40;2.80;;;26.30;77.80;;;27.17;45.44;98462.09;5043476;27;114438;-74
2022/07/29 07:53:08;;;;;;;3.60;3.27;;;26.40;77.60;;;27.25;44.59;98466.41;5039816;27;114882;-73
2022/07/29 07:55:48;;;;;;;3.23;2.70;;;26.50;76.10;;;27.28;44.07;98459.88;5044147;27;124270;-72
2022/07/29 07:58:14;;;;;;;3.47;3.07;;;26.60;75.90;;;27.31;43.75;98467.50;5037012;27;123739;-72
2022/07/29 08:00:46;;;;;;;5.80;4.20;;;26.60;74.20;;;27.33;43.83;98457.78;5033949;27;115307;-73
2022/07/29 08:03:14;;;;;;;4.73;3.20;;;26.60;74.10;;;27.34;43.45;98459.38;5042906;27;115798;-73
2022/07/29 08:05:51;;;;;;;3.70;3.33;;;26.60;73.70;;;27.39;43.53;98468.16;5035692;27;124176;-72
2022/07/29 08:08:29;;;;;;;3.73;3.20;;;26.70;73.40;;;27.41;43.04;98464.91;5040215;27;123763;-73
2022/07/29 08:10:56;;;;;;;4.50;3.23;;;26.70;72.70;;;27.44;42.99;98464.03;5038816;27;114315;-74
2022/07/29 08:13:31;;;;;;;4.83;3.83;;;26.80;72.20;;;27.42;42.48;98466.50;5044918;27;114214;-72
2022/07/29 08:16:01;;;;;;;3.90;3.20;;;26.80;71.50;;;27.46;42.26;98473.72;5040313;27;124894;-73
2022/07/29 08:18:30;;;;;;;4.87;2.93;;;26.80;71.40;;;27.48;41.70;98459.09;5043406;27;124670;-73
2022/07/29 08:20:58;;;;;;;4.33;3.40;;;26.80;70.40;;;27.51;42.13;98459.03;5044820;27;114385;-75
2022/07/29 08:23:26;;;;;;;4.73;3.10;;;26.80;70.90;;;27.54;42.72;98463.03;5037181;27;113959;-74
2022/07/29 08:25:59;;;;;;;4.00;3.23;;;26.90;71.50;;;27.53;42.34;98467.88;5036541;27;123311;-73
2022/07/29 08:28:25;;;;;;;4.20;3.10;;;26.90;71.50;;;27.54;42.86;98463.84;5032347;27;124333;-73
2022/07/29 08:30:57;;;;;;;4.40;3.53;;;26.90;71.30;;;27.53;43.54;98462.22;5043177;27;114828;-75
2022/07/29 08:33:24;;;;;;;4.80;3.33;;;26.90;72.10;;;27.58;43.51;98466.59;5040473;27;113989;-73
2022/07/29 08:35:50;;;;;;;3.80;3.40;;;26.90;72.50;;;27.64;42.98;98462.00;5050032;27;123844;-72
2022/07/29 08:38:17;;;;;;;6.40;3.63;;;27.00;72.50;;;27.71;43.76;98467.53;5037516;27;123183;-73
2022/07/29 08:40:45;;;;;;;6.57;3.77;;;27.00;72.50;;;27.77;42.06;98465.00;5046614;27;114360;-73
2022/07/29 08:43:11;;;;;;;5.83;3.60;;;27.10;71.30;;;27.82;41.37;98467.34;5033352;27;113864;-73
2022/07/29 08:45:47;;;;;;;3.30;2.90;;;27.20;69.70;;;27.84;40.96;98469.78;5036523;27;124138;-74
2022/07/29 08:48:19;;;;;;;8.87;3.80;;;27.30;68.80;;;27.88;41.28;98464.81;5041850;27;123778;-72
2022/07/29 08:50:51;;;;;;;3.63;2.90;;;27.30;69.10;;;27.89;42.19;98467.22;5045992;27;115382;-73
2022/07/29 08:53:18;;;;;;;7.50;2.87;;;27.30;69.70;;;27.93;42.44;98459.41;5038829;27;114935;-74
2022/07/29 08:55:49;;;;;;;3.87;3.13;;;27.40;70.10;;;27.98;42.15;98463.78;5035235;27;124165;-73
2022/07/29 08:58:17;;;;;;;5.87;3.30;;;27.40;70.00;;;28.02;42.03;98458.00;5043383;27;123649;-73
2022/07/29 09:00:55;;;;;;;5.47;3.23;;;27.50;69.70;;;28.02;40.85;98458.81;5043449;27;114476;-73
2022/07/29 09:03:30;;;;;;;5.27;3.77;;;27.50;68.40;;;28.08;40.85;98461.97;5040050;27;113248;-73
2022/07/29 09:06:01;;;;;;;3.87;3.17;;;27.50;68.20;;;28.11;41.06;98463.91;5034552;27;123915;-73
2022/07/29 09:08:30;;;;;;;3.67;3.37;;;27.50;67.90;;;28.10;39.72;98465.97;5049764;27;122930;-73
2022/07/29 09:10:59;;;;;;;4.63;3.97;;;27.50;66.50;;;28.10;39.25;98471.63;5045065;27;114082;-73
2022/07/29 09:13:26;;;;;;;4.40;3.60;;;27.50;65.30;;;28.09;38.99;98475.69;5047739;27;114136;-72
2022/07/29 09:15:53;;;;;;;4.80;3.60;;;27.50;64.10;;;28.10;38.23;98465.97;5039287;27;124383;-73
2022/07/29 09:18:44;;;;;;;5.90;4.30;;;27.60;63.20;;;28.08;38.73;98468.44;5043144;27;124462;-73
2022/07/29 09:24:16;;;;;;;5.63;3.60;;;27.60;63.70;;;28.22;38.25;98463.69;5041039;27;115707;-72
2022/07/29 09:26:45;;;;;;;10.13;4.33;;;27.60;63.40;;;28.23;38.22;98468.09;5045462;27;124336;-72
2022/07/29 09:29:20;;;;;;;6.37;4.10;;;27.60;62.60;;;28.25;38.24;98463.59;5043171;27;123812;-73
2022/07/29 09:31:57;;;;;;;4.90;3.67;;;27.70;62.90;;;28.30;38.35;98450.91;5042760;27;113644;-73
2022/07/29 09:34:31;;;;;;;8.33;4.03;;;27.70;62.90;;;28.34;38.49;98462.97;5049398;27;113812;-74
2022/07/29 09:37:04;;;;;;;3.90;2.97;;;27.80;62.80;;;28.39;38.33;98451.88;5045082;27;124520;-73
2022/07/29 09:39:36;;;;;;;4.43;4.03;;;27.80;62.80;;;28.44;38.14;98444.13;5040622;27;123799;-73
2022/07/29 09:42:05;;;;;;;5.53;3.40;;;27.80;62.20;;;28.50;38.14;98448.03;5035643;27;114385;-73
2022/07/29 09:44:52;;;;;;;6.43;3.40;;;27.90;62.20;;;28.55;38.32;98451.13;5040843;27;115380;-72
2022/07/29 09:47:21;;;;;;;5.07;4.17;;;28.00;63.10;;;28.57;38.30;98447.88;5038850;27;123466;-72
2022/07/29 09:49:57;;;;;;;9.43;3.70;;;28.00;62.50;;;28.57;38.55;98437.28;5044383;27;123815;-73
2022/07/29 09:52:26;;;;;;;6.03;3.97;;;28.00;62.50;;;28.58;38.51;98441.72;5047018;27;113465;-73
2022/07/29 09:55:13;;;;;;;4.73;3.43;;;28.00;62.30;;;28.62;38.04;98433.13;5046004;27;115278;-73
2022/07/29 09:57:47;;;;;;;6.13;3.53;;;28.00;62.00;;;28.63;37.86;98446.88;5048410;27;123124;-73
2022/07/29 10:00:22;;;;;;;6.97;4.20;;;28.10;61.70;;;28.65;37.87;98446.44;5044478;27;124290;-73
2022/07/29 10:02:49;;;;;;;7.20;4.40;;;28.10;61.50;;;28.68;38.01;98437.03;5032099;27;114704;-72
2022/07/29 10:05:25;;;;;;;5.60;3.90;;;28.20;61.40;;;28.70;37.90;98422.38;5028828;27;112970;-73
2022/07/29 10:07:57;;;;;;;6.30;3.67;;;28.20;61.30;;;28.73;38.04;98438.53;5038171;27;124566;-72
2022/07/29 10:10:31;;;;;;;5.03;3.63;;;28.20;61.10;;;28.77;37.91;98440.03;5037724;27;123945;-74
2022/07/29 10:13:02;;;;;;;4.03;3.40;;;28.30;61.10;;;28.77;37.58;98434.34;5029030;27;114249;-73
2022/07/29 10:15:40;;;;;;;4.67;3.23;;;28.30;60.80;;;28.78;37.56;98433.13;5037652;27;114339;-73
2022/07/29 10:18:08;;;;;;;6.97;3.37;;;28.30;60.80;;;28.83;37.52;98426.91;5039510;27;123259;-73
2022/07/29 10:20:36;;;;;;;6.50;3.40;;;28.30;60.90;;;28.89;37.63;98437.75;5037624;27;124089;-71
2022/07/29 10:23:03;;;;;;;4.57;3.00;;;28.40;60.60;;;28.92;37.54;98434.78;5040069;27;114091;-71
2022/07/29 10:25:30;;;;;;;6.47;3.20;;;28.40;60.40;;;28.93;37.52;98430.69;5039565;27;113478;-73
2022/07/29 10:27:57;;;;;;;3.83;3.47;;;28.40;60.30;;;28.95;37.41;98428.22;5035433;27;124117;-74
2022/07/29 10:30:26;;;;;;;4.00;3.17;;;28.50;60.10;;;28.94;36.92;98426.63;5033350;27;123877;-72
2022/07/29 10:33:15;;;;;;;4.97;3.50;;;28.40;59.70;;;28.89;37.03;98421.47;5043730;27;115250;-73
2022/07/29 10:35:54;;;;;;;4.60;3.23;;;28.50;59.30;;;28.83;37.29;98432.59;5038537;27;115003;-73
2022/07/29 10:38:54;;;;;;;4.07;3.67;;;28.40;59.30;;;28.75;37.37;98419.78;5031655;27;123292;-74
2022/07/29 10:41:59;;;;;;;4.60;3.57;;;28.40;59.60;;;28.67;37.88;98426.09;5043942;27;123978;-73